createdAt,value
2023-05-21T00:01:17.743Z,96462.38
2023-05-21T00:03:49.736Z,96460.03
2023-05-21T00:06:21.826Z,96462.16
2023-05-21T00:08:53.524Z,96459.13
2023-05-21T00:11:25.225Z,96452.06
2023-05-21T00:13:57.661Z,96442.06
2023-05-21T00:16:29.260Z,96442.53
2023-05-21T00:19:00.949Z,96446.69
2023-05-21T00:21:32.642Z,96445.84
2023-05-21T00:24:04.440Z,96449.78
2023-05-21T00:26:35.984Z,96447.19
2023-05-21T00:29:07.793Z,96446.31
2023-05-21T00:31:39.712Z,96450.47
2023-05-21T00:34:13.664Z,96447.88
2023-05-21T00:36:46.476Z,96444.50
2023-05-21T00:39:18.219Z,96437.25
2023-05-21T00:41:50.084Z,96440.63
2023-05-21T00:44:21.710Z,96443.41
2023-05-21T00:46:53.680Z,96432.53
2023-05-21T00:49:25.325Z,96437.91
2023-05-21T00:51:57.548Z,96428.31
2023-05-21T00:54:31.758Z,96430.88
2023-05-21T00:57:04.276Z,96426.63
2023-05-21T00:59:35.944Z,96427.34
2023-05-21T01:02:08.315Z,96425.31
2023-05-21T01:04:40.232Z,96426.56
2023-05-21T01:07:12.606Z,96433.63
2023-05-21T01:09:44.444Z,96420.97
2023-05-21T01:12:19.318Z,96423.53
2023-05-21T01:14:52.919Z,96424.13
2023-05-21T01:17:27.305Z,96427.81
2023-05-21T01:20:00.074Z,96430.09
2023-05-21T01:22:35.012Z,96437.09
2023-05-21T01:25:07.031Z,96444.66
2023-05-21T01:27:38.759Z,96437.19
2023-05-21T01:30:11.248Z,96435.38
2023-05-21T01:32:55.094Z,96441.09
2023-05-21T01:35:35.217Z,96446.47
2023-05-21T01:38:25.300Z,96439.69
2023-05-21T01:41:18.411Z,96442.56
2023-05-21T01:43:53.284Z,96437.00
2023-05-21T01:46:28.966Z,96430.59
2023-05-21T01:49:01.648Z,96436.22
2023-05-21T01:51:34.553Z,96441.94
2023-05-21T01:54:06.357Z,96431.97
2023-05-21T01:56:38.050Z,96430.19
2023-05-21T01:59:10.202Z,96433.56
2023-05-21T02:01:42.148Z,96434.41
2023-05-21T02:04:13.993Z,96435.69
2023-05-21T02:06:45.797Z,96433.50
2023-05-21T02:09:17.704Z,96433.97
2023-05-21T02:11:49.472Z,96436.97
2023-05-21T02:14:21.698Z,96434.09
2023-05-21T02:16:53.431Z,96439.66
2023-05-21T02:19:25.219Z,96439.19
2023-05-21T02:21:56.917Z,96434.44
2023-05-21T02:24:28.621Z,96439.03
2023-05-21T02:27:00.728Z,96436.59
2023-05-21T02:29:32.941Z,96438.66
2023-05-21T02:32:05.070Z,96438.22
2023-05-21T02:34:36.664Z,96433.78
2023-05-21T02:37:08.293Z,96434.69
2023-05-21T02:39:39.929Z,96443.09
2023-05-21T02:42:11.956Z,96433.13
2023-05-21T02:44:43.589Z,96423.13
2023-05-21T02:47:15.261Z,96422.63
2023-05-21T02:49:47.020Z,96429.56
2023-05-21T02:52:20.487Z,96435.66
2023-05-21T02:54:52.477Z,96438.81
2023-05-21T02:57:24.147Z,96433.06
2023-05-21T02:59:56.189Z,96429.69
2023-05-21T03:02:28.530Z,96434.88
2023-05-21T03:05:00.189Z,96434.81
2023-05-21T03:07:31.886Z,96440.72
2023-05-21T03:10:03.670Z,96427.72
2023-05-21T03:12:35.529Z,96426.50
2023-05-21T03:15:07.695Z,96425.91
2023-05-21T03:17:39.452Z,96423.00
2023-05-21T03:20:11.738Z,96420.78
2023-05-21T03:22:44.809Z,96418.88
2023-05-21T03:25:17.363Z,96421.38
2023-05-21T03:27:51.738Z,96417.78
2023-05-21T03:30:43.803Z,96415.31
2023-05-21T03:33:33.682Z,96414.22
2023-05-21T03:36:09.153Z,96424.72
2023-05-21T03:38:42.578Z,96422.03
2023-05-21T03:41:14.553Z,96423.75
2023-05-21T03:43:49.842Z,96428.53
2023-05-21T03:46:22.044Z,96434.56
2023-05-21T03:49:15.587Z,96435.03
2023-05-21T03:51:47.417Z,96437.91
2023-05-21T03:54:21.761Z,96437.13
2023-05-21T03:56:55.694Z,96442.66
2023-05-21T03:59:29.194Z,96448.59
2023-05-21T04:02:00.901Z,96442.63
2023-05-21T04:04:32.633Z,96448.66
2023-05-21T04:07:04.971Z,96443.34
2023-05-21T04:09:36.873Z,96451.03
2023-05-21T04:12:08.650Z,96453.88
2023-05-21T04:14:42.830Z,96466.53
2023-05-21T04:17:16.556Z,96468.59
2023-05-21T04:19:49.175Z,96469.59
2023-05-21T04:22:20.991Z,96466.63
2023-05-21T04:24:53.957Z,96470.56
2023-05-21T04:27:30.800Z,96473.97
2023-05-21T04:30:04.018Z,96474.25
2023-05-21T04:32:37.832Z,96467.94
2023-05-21T04:35:09.500Z,96471.22
2023-05-21T04:37:41.456Z,96477.47
2023-05-21T04:40:13.595Z,96475.31
2023-05-21T04:42:46.985Z,96475.91
2023-05-21T04:45:19.446Z,96482.09
2023-05-21T04:47:53.017Z,96494.06
2023-05-21T04:50:24.997Z,96483.22
2023-05-21T04:52:56.779Z,96494.94
2023-05-21T04:55:28.456Z,96489.72
2023-05-21T04:58:00.110Z,96493.16
2023-05-21T05:00:31.763Z,96495.97
2023-05-21T05:03:04.027Z,96492.09
2023-05-21T05:05:36.281Z,96492.78
2023-05-21T05:08:08.059Z,96496.28
2023-05-21T05:10:39.757Z,96495.16
2023-05-21T05:13:11.432Z,96498.13
2023-05-21T05:15:43.127Z,96499.78
2023-05-21T05:18:15.033Z,96497.50
2023-05-21T05:20:46.736Z,96501.13
2023-05-21T05:23:18.582Z,96501.44
2023-05-21T05:25:50.251Z,96504.75
2023-05-21T17:52:36.929Z,96477.78
2023-05-21T17:55:09.086Z,96479.84
2023-05-21T17:57:41.027Z,96473.59
2023-05-21T18:00:13.334Z,96486.50
2023-05-21T18:02:45.000Z,96487.38
2023-05-21T18:05:16.854Z,96487.69
2023-05-21T18:07:48.661Z,96492.78
2023-05-21T18:10:20.471Z,96484.69
2023-05-21T18:12:52.210Z,96486.19
2023-05-21T18:15:23.926Z,96485.69
2023-05-21T18:17:55.768Z,96496.94
2023-05-21T18:20:27.443Z,96500.41
2023-05-21T18:22:59.154Z,96506.41
2023-05-21T18:25:31.006Z,96504.53
2023-05-21T18:28:02.895Z,96502.03
2023-05-21T18:30:35.273Z,96498.81
2023-05-21T18:33:07.365Z,96503.75
2023-05-21T18:35:39.150Z,96507.56
2023-05-21T18:38:11.323Z,96509.38
2023-05-21T18:40:43.084Z,96506.94
2023-05-21T18:43:14.839Z,96511.47
2023-05-21T18:45:46.952Z,96511.38
2023-05-21T18:48:18.657Z,96512.03
2023-05-21T18:50:50.477Z,96517.75
2023-05-21T18:53:22.200Z,96520.53
2023-05-21T18:55:53.900Z,96533.59
2023-05-21T18:58:25.710Z,96540.19
2023-05-21T19:00:57.505Z,96543.94
2023-05-21T19:03:29.236Z,96542.19
2023-05-21T19:06:00.963Z,96552.31
2023-05-21T19:08:33.569Z,96555.22
2023-05-21T19:11:05.474Z,96552.75
2023-05-21T19:13:37.094Z,96556.91
2023-05-21T19:16:08.783Z,96558.53
2023-05-21T19:18:43.645Z,96556.13
2023-05-21T19:21:15.533Z,96563.88
2023-05-21T19:23:53.377Z,96567.25
2023-05-21T19:26:25.724Z,96562.84
2023-05-21T19:28:57.434Z,96567.47
2023-05-21T19:31:29.115Z,96558.81
2023-05-21T19:34:00.910Z,96564.31
2023-05-21T19:36:48.540Z,96564.84
2023-05-21T19:39:23.548Z,96570.81
2023-05-21T19:41:55.248Z,96576.66
2023-05-21T19:44:26.884Z,96580.06
2023-05-21T19:46:59.471Z,96577.88
2023-05-21T19:49:31.117Z,96575.31
2023-05-21T19:52:03.089Z,96578.44
2023-05-21T19:54:34.757Z,96580.00
2023-05-21T19:57:11.562Z,96586.22
2023-05-21T19:59:44.211Z,96587.34
2023-05-21T20:02:16.134Z,96592.09
2023-05-21T20:04:48.080Z,96597.91
2023-05-21T20:07:19.846Z,96599.75
2023-05-21T20:09:51.514Z,96600.03
2023-05-21T20:12:23.345Z,96612.06
2023-05-21T20:14:55.117Z,96613.41
2023-05-21T20:17:26.717Z,96616.63
2023-05-21T20:19:58.632Z,96616.28
2023-05-21T20:22:30.235Z,96614.53
2023-05-21T20:25:02.016Z,96615.63
2023-05-21T20:27:33.677Z,96621.09
2023-05-21T20:30:08.781Z,96618.81
2023-05-21T20:32:40.529Z,96627.06
2023-05-21T20:35:12.592Z,96620.56
2023-05-21T20:37:44.388Z,96618.53
2023-05-21T20:40:16.067Z,96621.06
2023-05-21T20:42:48.401Z,96614.78
2023-05-21T20:45:20.417Z,96620.34
2023-05-21T20:47:52.188Z,96622.16
2023-05-21T20:50:24.038Z,96621.03
2023-05-21T20:52:55.699Z,96626.66
2023-05-21T20:55:27.564Z,96626.03
2023-05-21T20:57:59.257Z,96620.59
2023-05-21T21:00:33.802Z,96628.00
2023-05-21T21:03:05.486Z,96632.22
2023-05-21T21:05:37.410Z,96628.31
2023-05-21T21:08:09.219Z,96636.78
2023-05-21T21:10:41.240Z,96631.88
2023-05-21T21:13:14.042Z,96632.16
2023-05-21T21:15:45.770Z,96638.06
2023-05-21T21:18:17.664Z,96641.28
2023-05-21T21:20:49.448Z,96632.66
2023-05-21T21:23:23.063Z,96637.78
2023-05-21T21:25:54.727Z,96646.34
2023-05-21T21:28:26.382Z,96653.66
2023-05-21T21:30:58.188Z,96649.44
2023-05-21T21:33:29.888Z,96652.97
2023-05-21T21:36:01.526Z,96652.09
2023-05-21T21:38:33.110Z,96664.72
2023-05-21T21:41:04.855Z,96658.25
2023-05-21T21:43:36.682Z,96661.53
2023-05-21T21:46:08.471Z,96658.50
2023-05-21T21:48:40.138Z,96658.00
2023-05-21T21:51:11.954Z,96656.13
2023-05-21T21:53:43.723Z,96662.91
2023-05-21T21:56:15.669Z,96655.25
2023-05-21T21:58:47.520Z,96658.69
2023-05-21T22:01:19.335Z,96655.09
2023-05-21T22:03:51.094Z,96660.69
2023-05-21T22:06:22.962Z,96656.59
2023-05-21T22:08:55.002Z,96658.63
2023-05-21T22:11:26.976Z,96660.56
2023-05-21T22:13:58.821Z,96658.09
2023-05-21T22:16:30.622Z,96659.28
2023-05-21T22:19:02.437Z,96657.91
2023-05-21T22:21:34.256Z,96664.00
2023-05-21T22:24:06.349Z,96668.47
2023-05-21T22:26:38.031Z,96678.53
2023-05-21T22:29:09.990Z,96677.31
2023-05-21T22:31:41.649Z,96677.28
2023-05-21T22:34:13.288Z,96687.19
2023-05-21T22:36:46.503Z,96684.63
2023-05-21T22:39:18.283Z,96680.22
2023-05-21T22:41:50.037Z,96687.78
2023-05-21T22:44:21.780Z,96686.41
2023-05-21T22:46:53.422Z,96677.63
2023-05-21T22:49:25.141Z,96685.47
2023-05-21T22:51:56.856Z,96688.19
2023-05-21T22:54:28.502Z,96688.41
2023-05-21T22:57:01.422Z,96687.31
2023-05-21T22:59:33.074Z,96689.06
2023-05-21T23:02:05.231Z,96687.97
2023-05-21T23:04:43.955Z,96692.00
2023-05-21T23:07:16.369Z,96689.75
2023-05-21T23:09:48.138Z,96688.41
2023-05-21T23:12:19.802Z,96692.56
2023-05-21T23:14:51.391Z,96684.63
2023-05-21T23:17:22.970Z,96698.34
2023-05-21T23:19:54.614Z,96693.59
2023-05-21T23:22:26.357Z,96691.78
2023-05-21T23:24:57.947Z,96685.03
2023-05-21T23:27:29.595Z,96686.84
2023-05-21T23:30:01.269Z,96682.25
2023-05-21T23:32:33.066Z,96689.16
2023-05-21T23:35:05.155Z,96685.28
2023-05-21T23:37:36.826Z,96690.78
2023-05-21T23:40:09.133Z,96695.13
2023-05-21T23:42:40.973Z,96690.25
2023-05-21T23:45:12.649Z,96688.84
2023-05-21T23:47:44.465Z,96681.91
2023-05-21T23:50:16.331Z,96681.00
2023-05-21T23:52:48.256Z,96685.03
2023-05-21T23:55:20.189Z,96684.56
2023-05-21T23:57:52.177Z,96672.41
